Time;durP1;ratioP1;P1;durP2;ratioP2;P2;SDS_P1;SDS_P2;PMS_P1;PMS_P2;Temp;Humidity;BMP_temperature;BMP_pressure;BME280_temperature;BME280_humidity;BME280_pressure;Samples;Min_cycle;Max_cycle;Signal;HPM_P1;HPM_P2
2024/03/01 00:03:02;;;;;;;12.43;2.30;;;5.50;99.90;;;;;;6289282;28;20049;-91
2024/03/01 00:06:04;;;;;;;8.48;2.42;;;5.40;99.90;;;;;;6252359;28;20049;-91
2024/03/01 00:09:06;;;;;;;14.48;2.92;;;5.10;99.90;;;;;;6277245;28;20131;-91
2024/03/01 00:12:10;;;;;;;9.88;2.55;;;5.20;99.90;;;;;;6268169;28;20060;-92
2024/03/01 00:15:11;;;;;;;21.15;6.00;;;5.10;99.90;;;;;;6266929;28;20117;-90
2024/03/01 00:18:13;;;;;;;8.73;2.45;;;5.00;99.90;;;;;;6252249;28;20492;-91
2024/03/01 00:21:15;;;;;;;7.75;2.42;;;6.30;99.90;;;;;;6275645;28;20135;-91
2024/03/01 00:24:18;;;;;;;10.45;2.50;;;4.90;99.90;;;;;;6257836;28;20053;-92
2024/03/01 00:27:20;;;;;;;15.45;2.85;;;4.80;99.90;;;;;;6276160;28;20049;-91
2024/03/01 00:30:21;;;;;;;12.43;2.80;;;4.70;99.90;;;;;;6252264;28;20056;-90
2024/03/01 00:33:23;;;;;;;16.20;3.40;;;4.60;99.90;;;;;;6277474;28;20056;-90
2024/03/01 00:36:25;;;;;;;11.52;3.47;;;;;;;;;;6269233;28;20065;-90
2024/03/01 00:39:27;;;;;;;15.57;4.88;;;4.70;99.90;;;;;;6269225;28;20049;-89
2024/03/01 00:42:28;;;;;;;16.88;4.82;;;4.70;99.90;;;;;;6280215;28;20049;-90
2024/03/01 00:45:30;;;;;;;21.35;4.78;;;4.60;99.90;;;;;;6269308;28;20049;-91
2024/03/01 00:48:34;;;;;;;12.75;4.55;;;4.60;99.90;;;;;;6284074;28;20053;-92
2024/03/01 00:51:36;;;;;;;19.08;5.80;;;4.50;99.90;;;;;;6263735;28;20041;-90
2024/03/01 00:54:38;;;;;;;16.08;5.40;;;4.50;99.90;;;;;;6260493;28;20049;-90
2024/03/01 00:57:39;;;;;;;17.52;5.13;;;4.50;99.90;;;;;;6254535;28;20053;-88
2024/03/01 01:00:42;;;;;;;22.00;6.00;;;4.50;99.90;;;;;;6274553;28;20057;-89
2024/03/01 01:03:43;;;;;;;15.77;5.22;;;4.50;99.90;;;;;;6229448;28;20520;-90
2024/03/01 01:06:45;;;;;;;18.90;6.05;;;4.50;99.90;;;;;;6278091;28;20079;-90
2024/03/01 01:09:47;;;;;;;19.73;5.55;;;4.50;99.90;;;;;;6269072;28;20124;-90
2024/03/01 01:12:49;;;;;;;24.15;6.05;;;4.50;99.90;;;;;;6275058;28;20052;-89
2024/03/01 01:15:50;;;;;;;16.42;5.43;;;4.50;99.90;;;;;;6235105;28;20507;-90
2024/03/01 01:18:53;;;;;;;15.40;5.35;;;4.50;99.90;;;;;;6237107;28;20057;-90
2024/03/01 01:21:56;;;;;;;18.90;5.68;;;4.50;99.90;;;;;;6294320;28;20184;-90
2024/03/01 01:24:57;;;;;;;16.02;4.70;;;4.50;99.90;;;;;;6269346;28;20053;-90
2024/03/01 01:27:59;;;;;;;19.35;4.78;;;4.50;99.90;;;;;;6273655;28;20046;-89
2024/03/01 01:31:01;;;;;;;17.88;4.55;;;4.40;99.90;;;;;;6239251;28;20049;-89
2024/03/01 01:34:03;;;;;;;14.57;4.57;;;4.30;99.90;;;;;;6243113;28;20049;-88
2024/03/01 01:37:05;;;;;;;13.68;4.82;;;4.30;99.90;;;;;;6290783;28;20159;-88
2024/03/01 01:40:07;;;;;;;13.50;4.13;;;4.30;99.90;;;;;;6266623;28;20049;-88
2024/03/01 01:43:08;;;;;;;17.63;4.22;;;4.30;99.90;;;;;;6269612;28;20081;-89
2024/03/01 01:46:10;;;;;;;17.83;4.60;;;4.20;99.90;;;;;;6249020;28;20091;-88
2024/03/01 01:49:12;;;;;;;14.73;3.90;;;4.20;99.90;;;;;;6262233;28;20060;-88
2024/03/01 01:52:14;;;;;;;10.27;3.15;;;4.20;99.90;;;;;;6264140;28;20081;-88
2024/03/01 01:55:15;;;;;;;14.25;3.30;;;4.10;99.90;;;;;;6273833;28;20054;-89
2024/03/01 01:58:17;;;;;;;14.52;3.63;;;4.00;99.90;;;;;;6272185;28;20473;-82
2024/03/01 02:01:19;;;;;;;9.45;3.03;;;4.00;99.90;;;;;;6294905;28;20049;-89
2024/03/01 02:04:21;;;;;;;10.30;3.25;;;4.00;99.90;;;;;;6254266;28;20077;-87
2024/03/01 02:07:23;;;;;;;8.25;3.03;;;4.00;99.90;;;;;;6278257;28;20045;-88
2024/03/01 02:10:25;;;;;;;17.63;3.70;;;4.10;99.90;;;;;;6274444;28;20056;-89
2024/03/01 02:13:26;;;;;;;18.10;4.03;;;4.10;99.90;;;;;;6240291;28;20488;-89
2024/03/01 02:16:28;;;;;;;11.18;3.45;;;4.00;99.90;;;;;;6277411;28;20076;-89
2024/03/01 02:19:30;;;;;;;12.60;2.92;;;4.00;99.90;;;;;;6275066;28;20201;-89
2024/03/01 02:22:32;;;;;;;9.30;2.95;;;3.90;99.90;;;;;;6259430;28;20060;-90
2024/03/01 02:25:34;;;;;;;15.30;2.97;;;3.90;99.90;;;;;;6258823;28;20524;-89
2024/03/01 02:28:36;;;;;;;12.45;2.90;;;4.00;99.90;;;;;;6251955;28;20557;-89
2024/03/01 02:31:37;;;;;;;17.00;3.15;;;3.90;99.90;;;;;;6258791;28;20053;-89
2024/03/01 02:34:39;;;;;;;12.45;3.05;;;3.90;99.90;;;;;;6251916;28;20132;-89
2024/03/01 02:37:41;;;;;;;10.60;2.65;;;3.90;99.90;;;;;;6274666;28;20052;-89
2024/03/01 02:40:43;;;;;;;11.15;2.88;;;3.80;99.90;;;;;;6251240;28;20056;-89
2024/03/01 02:43:45;;;;;;;13.13;2.78;;;3.80;99.90;;;;;;6260494;28;20046;-89
2024/03/01 02:46:46;;;;;;;14.02;2.70;;;3.80;99.90;;;;;;6290981;28;20056;-89
2024/03/01 02:49:48;;;;;;;12.15;2.95;;;3.70;99.90;;;;;;6251572;28;20053;-90
2024/03/01 02:52:50;;;;;;;10.43;3.00;;;3.70;99.90;;;;;;6257744;28;20049;-89
2024/03/01 02:55:52;;;;;;;14.35;3.15;;;3.60;99.90;;;;;;6251096;28;20512;-89
2024/03/01 02:58:53;;;;;;;14.20;3.00;;;3.50;99.90;;;;;;6274636;28;20818;-89
2024/03/01 03:01:55;;;;;;;12.98;3.13;;;3.50;99.90;;;;;;6274909;28;20048;-90
2024/03/01 03:04:57;;;;;;;15.55;3.17;;;3.40;99.90;;;;;;6279139;28;20050;-90
2024/03/01 03:07:59;;;;;;;15.65;2.97;;;3.30;99.90;;;;;;6287964;28;20533;-90
2024/03/01 03:11:00;;;;;;;14.80;3.60;;;3.30;99.90;;;;;;6275191;28;20458;-91
2024/03/01 03:14:02;;;;;;;10.02;3.20;;;3.30;99.90;;;;;;6235113;28;20507;-90
2024/03/01 03:17:04;;;;;;;11.60;3.00;;;3.20;99.90;;;;;;6274500;28;20048;-88
2024/03/01 03:20:12;;;;;;;7.53;2.30;;;3.20;99.90;;;;;;6261936;28;20057;-90
2024/03/01 03:23:13;;;;;;;11.73;2.72;;;3.10;99.90;;;;;;6250838;28;20104;-89
2024/03/01 03:26:15;;;;;;;16.95;2.92;;;3.00;99.90;;;;;;6288715;28;20049;-89
2024/03/01 03:29:16;;;;;;;11.93;2.40;;;3.10;99.90;;;;;;6269181;28;20053;-89
2024/03/01 03:32:18;;;;;;;10.32;2.38;;;3.10;99.90;;;;;;6265750;28;20052;-89
2024/03/01 03:35:20;;;;;;;11.70;2.80;;;3.10;99.90;;;;;;6256479;28;20057;-88
2024/03/01 03:38:21;;;;;;;11.10;2.25;;;3.10;99.90;;;;;;6271710;28;20045;-89
2024/03/01 03:41:23;;;;;;;9.18;2.50;;;3.30;99.90;;;;;;6256993;28;20053;-88
2024/03/01 03:44:25;;;;;;;10.85;2.35;;;3.50;99.90;;;;;;6249083;28;20076;-86
2024/03/01 03:47:27;;;;;;;9.82;2.03;;;3.60;99.90;;;;;;6268764;28;20060;-88
2024/03/01 03:50:29;;;;;;;12.73;2.40;;;3.70;99.90;;;;;;6256646;28;20052;-88
2024/03/01 03:53:31;;;;;;;6.90;1.55;;;;;;;;;;6263530;28;20056;-87
2024/03/01 03:56:32;;;;;;;11.55;1.85;;;3.60;99.90;;;;;;6273025;28;20412;-88
2024/03/01 03:59:34;;;;;;;6.90;1.77;;;3.80;99.90;;;;;;6246953;28;20040;-87
2024/03/01 04:02:36;;;;;;;12.55;2.47;;;3.80;99.90;;;;;;6249406;28;20129;-89
2024/03/01 04:05:38;;;;;;;11.18;1.90;;;;;;;;;;6287556;28;20049;-88
2024/03/01 04:08:40;;;;;;;16.67;2.47;;;3.60;99.90;;;;;;6262983;28;20050;-89
2024/03/01 04:11:41;;;;;;;13.02;2.28;;;3.60;99.90;;;;;;6288513;28;20056;-87
2024/03/01 04:14:43;;;;;;;8.00;1.80;;;3.70;99.90;;;;;;6251193;28;20515;-90
2024/03/01 04:17:44;;;;;;;11.48;1.70;;;3.70;99.90;;;;;;6289257;28;20059;-89
2024/03/01 04:20:47;;;;;;;7.57;1.98;;;3.70;99.90;;;;;;6275658;28;20104;-89
2024/03/01 04:23:49;;;;;;;10.60;1.40;;;3.70;99.90;;;;;;6273332;28;20049;-89
2024/03/01 04:26:50;;;;;;;8.77;1.52;;;3.70;99.90;;;;;;6273955;28;20420;-88
2024/03/01 04:29:52;;;;;;;11.23;1.80;;;3.70;99.90;;;;;;6239592;28;20485;-89
2024/03/01 04:32:54;;;;;;;6.03;1.27;;;3.70;99.90;;;;;;6287910;28;20060;-89
2024/03/01 04:35:55;;;;;;;8.18;1.50;;;3.70;99.90;;;;;;6272381;28;20075;-87
2024/03/01 04:38:57;;;;;;;12.60;1.92;;;3.70;99.90;;;;;;6264593;28;20048;-89
2024/03/01 04:41:59;;;;;;;12.52;2.05;;;3.70;99.90;;;;;;6274448;28;20053;-89
2024/03/01 04:45:01;;;;;;;8.82;1.65;;;3.70;99.90;;;;;;6288091;28;20072;-89
2024/03/01 04:48:04;;;;;;;8.35;1.33;;;3.60;99.90;;;;;;6263221;28;20057;-88
2024/03/01 04:51:06;;;;;;;8.35;1.52;;;3.60;99.90;;;;;;6255931;28;20044;-87
2024/03/01 04:54:07;;;;;;;6.97;1.33;;;3.60;99.90;;;;;;6257821;28;20053;-87
2024/03/01 04:57:09;;;;;;;8.32;1.70;;;3.60;99.90;;;;;;6270989;28;20175;-86
2024/03/01 05:00:15;;;;;;;14.75;1.65;;;3.60;99.90;;;;;;6262849;28;20097;-85
2024/03/01 05:03:17;;;;;;;8.73;1.60;;;3.60;99.90;;;;;;6222807;28;20408;-87
2024/03/01 05:06:19;;;;;;;9.02;1.40;;;3.60;99.90;;;;;;6270498;28;20052;-86
2024/03/01 05:09:20;;;;;;;6.90;1.50;;;3.60;99.90;;;;;;6252794;28;20045;-86
2024/03/01 05:12:22;;;;;;;9.07;2.25;;;3.50;99.90;;;;;;6271011;28;20061;-87
2024/03/01 05:15:24;;;;;;;12.65;2.13;;;3.70;99.90;;;;;;6277011;28;20056;-86
2024/03/01 05:18:25;;;;;;;11.00;1.50;;;3.70;99.90;;;;;;6264354;28;20436;-87
2024/03/01 05:21:27;;;;;;;7.78;1.67;;;3.80;99.90;;;;;;6284055;28;20068;-87
2024/03/01 05:24:29;;;;;;;9.73;1.63;;;3.80;99.90;;;;;;6246059;28;20136;-87
2024/03/01 05:27:30;;;;;;;13.23;2.13;;;3.80;99.90;;;;;;6252034;28;20059;-87
2024/03/01 05:30:35;;;;;;;12.82;2.05;;;3.90;99.90;;;;;;6231540;28;20060;-87
2024/03/01 05:33:50;;;;;;;13.27;1.48;;;4.10;99.90;;;;;;6217636;28;20378;-85
2024/03/01 05:36:53;;;;;;;11.82;1.70;;;4.10;99.90;;;;;;6257958;28;20623;-86
2024/03/01 05:39:54;;;;;;;12.40;2.10;;;4.10;99.90;;;;;;6275290;28;20080;-85
2024/03/01 05:42:56;;;;;;;12.25;1.73;;;4.10;99.90;;;;;;6251706;28;20049;-85
2024/03/01 05:45:58;;;;;;;13.32;1.75;;;4.20;99.90;;;;;;6255762;28;20045;-84
2024/03/01 05:49:00;;;;;;;11.70;1.80;;;4.20;99.90;;;;;;6223716;28;20051;-84
2024/03/01 05:52:03;;;;;;;11.68;1.50;;;4.30;99.90;;;;;;6255586;28;20472;-82
2024/03/01 05:55:06;;;;;;;10.70;1.73;;;4.30;99.90;;;;;;6271977;28;20056;-83
2024/03/01 05:58:08;;;;;;;8.18;1.25;;;4.40;99.90;;;;;;6254364;28;20052;-84
2024/03/01 06:01:11;;;;;;;12.73;1.75;;;4.80;99.90;;;;;;6254749;28;20053;-82
2024/03/01 06:04:12;;;;;;;19.58;2.45;;;4.60;99.90;;;;;;6247355;28;20103;-83
2024/03/01 06:07:14;;;;;;;10.80;1.58;;;4.60;99.90;;;;;;6270795;28;20503;-85
2024/03/01 06:10:16;;;;;;;12.75;1.67;;;4.60;99.90;;;;;;6251759;28;20084;-83
2024/03/01 06:13:18;;;;;;;12.55;2.20;;;4.70;99.90;;;;;;6242785;28;20128;-86
2024/03/01 06:16:21;;;;;;;17.60;2.08;;;4.80;99.90;;;;;;6264017;28;20083;-84
2024/03/01 06:19:23;;;;;;;16.20;2.22;;;4.80;99.90;;;;;;6257639;28;20191;-86
2024/03/01 06:22:24;;;;;;;11.32;2.40;;;4.90;99.90;;;;;;6264100;28;20183;-85
2024/03/01 06:25:26;;;;;;;13.02;1.98;;;4.90;99.90;;;;;;6247848;28;20097;-84
2024/03/01 06:28:28;;;;;;;11.88;2.17;;;4.90;99.90;;;;;;6261234;28;20043;-87
2024/03/01 06:31:30;;;;;;;16.75;1.98;;;4.90;99.90;;;;;;6257689;28;20405;-87
2024/03/01 06:34:32;;;;;;;11.20;1.90;;;5.00;99.90;;;;;;6268731;28;20060;-87
2024/03/01 06:37:35;;;;;;;14.77;2.25;;;5.10;99.90;;;;;;6241138;28;20044;-89
2024/03/01 06:40:38;;;;;;;17.17;2.53;;;5.20;99.90;;;;;;6277260;28;20049;-90
2024/03/01 06:43:40;;;;;;;14.85;2.10;;;5.30;99.90;;;;;;6259271;28;20557;-89
2024/03/01 06:46:42;;;;;;;14.88;2.38;;;5.50;99.90;;;;;;6283543;28;20488;-87
2024/03/01 06:49:43;;;;;;;15.35;2.03;;;5.50;99.90;;;;;;6268579;28;20056;-88
2024/03/01 06:52:45;;;;;;;20.83;2.25;;;5.60;99.90;;;;;;6253576;28;20052;-87
2024/03/01 06:55:46;;;;;;;20.20;2.80;;;5.70;99.90;;;;;;6262196;28;20505;-87
2024/03/01 06:58:48;;;;;;;17.17;2.00;;;5.80;99.90;;;;;;6241508;28;20068;-85
2024/03/01 07:01:50;;;;;;;19.20;3.10;;;5.80;99.90;;;;;;6270331;28;20061;-86
2024/03/01 07:04:51;;;;;;;24.27;3.13;;;5.70;99.90;;;;;;6246363;28;20058;-86
2024/03/01 07:07:53;;;;;;;15.30;2.53;;;6.50;99.90;;;;;;6270347;28;20516;-85
2024/03/01 07:10:55;;;;;;;19.60;2.85;;;5.70;99.90;;;;;;6245880;28;20447;-84
2024/03/01 07:13:57;;;;;;;12.05;1.98;;;5.70;99.90;;;;;;6255652;28;20504;-88
2024/03/01 07:16:58;;;;;;;15.65;2.08;;;5.60;99.90;;;;;;6271778;28;20060;-89
2024/03/01 07:20:00;;;;;;;16.70;2.38;;;5.60;99.90;;;;;;6257973;28;20071;-89
2024/03/01 07:23:02;;;;;;;17.20;2.45;;;5.50;99.90;;;;;;6247835;28;20527;-90
2024/03/01 07:26:04;;;;;;;8.65;1.55;;;5.40;99.90;;;;;;6271568;28;20075;-90
2024/03/01 07:29:08;;;;;;;10.43;1.98;;;5.40;99.90;;;;;;6267192;28;20057;-90
2024/03/01 07:32:09;;;;;;;9.85;1.48;;;5.20;99.90;;;;;;6262040;28;20126;-87
2024/03/01 07:35:11;;;;;;;9.18;1.30;;;5.10;99.90;;;;;;6289434;28;20067;-90
2024/03/01 07:38:13;;;;;;;6.70;1.00;;;5.00;99.90;;;;;;6249831;28;20053;-88
2024/03/01 07:41:18;;;;;;;5.88;0.98;;;5.00;99.90;;;;;;6286822;28;20136;-88
2024/03/01 07:44:20;;;;;;;4.50;1.30;;;4.90;99.90;;;;;;6259400;28;20076;-86
2024/03/01 07:47:24;;;;;;;6.18;1.23;;;5.00;99.90;;;;;;6263868;28;20191;-85
2024/03/01 07:50:26;;;;;;;6.50;1.23;;;4.80;99.90;;;;;;6285223;28;20063;-86
2024/03/01 07:53:28;;;;;;;4.13;1.15;;;4.90;99.90;;;;;;6262804;28;20053;-90
2024/03/01 07:56:30;;;;;;;6.68;1.02;;;4.80;99.90;;;;;;6285934;28;20416;-89
2024/03/01 07:59:31;;;;;;;4.32;1.00;;;4.80;99.90;;;;;;6231030;28;20053;-89
2024/03/01 08:02:33;;;;;;;4.93;0.90;;;4.80;99.90;;;;;;6285692;28;20056;-89
2024/03/01 08:05:35;;;;;;;3.72;0.70;;;4.80;99.90;;;;;;6245735;28;20057;-87
2024/03/01 08:08:38;;;;;;;3.90;0.75;;;4.80;99.90;;;;;;6286860;28;20057;-91
2024/03/01 08:11:40;;;;;;;3.83;1.02;;;4.90;99.90;;;;;;6261470;28;20057;-88
2024/03/01 08:14:41;;;;;;;3.72;0.90;;;4.80;99.90;;;;;;6251476;28;20056;-89
2024/03/01 08:17:46;;;;;;;2.42;0.55;;;4.90;99.90;;;;;;6261384;28;20415;-90
2024/03/01 08:20:48;;;;;;;5.82;1.23;;;6.20;99.90;;;;;;6286259;28;20057;-91
2024/03/01 08:23:50;;;;;;;4.07;0.75;;;5.10;99.90;;;;;;6260683;28;20061;-87
2024/03/01 08:26:52;;;;;;;5.00;1.42;;;5.10;99.90;;;;;;6285248;28;20064;-87
2024/03/01 08:29:53;;;;;;;5.47;0.90;;;5.20;99.90;;;;;;6258084;28;20436;-86
2024/03/01 08:32:55;;;;;;;8.00;1.45;;;5.10;99.90;;;;;;6287878;28;20048;-88
2024/03/01 08:35:57;;;;;;;6.30;0.88;;;5.30;99.90;;;;;;6261814;28;20275;-87
2024/03/01 08:38:58;;;;;;;3.88;0.80;;;5.40;99.90;;;;;;6272262;28;20053;-88
2024/03/01 08:42:00;;;;;;;4.45;1.10;;;;;;;;;;6247017;28;20057;-89
2024/03/01 08:45:03;;;;;;;6.35;1.00;;;5.80;99.90;;;;;;6249142;28;20386;-91
2024/03/01 08:48:05;;;;;;;8.68;1.23;;;5.90;99.90;;;;;;6260727;28;20393;-86
2024/03/01 08:51:06;;;;;;;11.15;1.35;;;6.40;99.90;;;;;;6288155;28;20069;-83
2024/03/01 08:54:10;;;;;;;10.88;1.63;;;6.10;99.90;;;;;;6263298;28;20520;-89
2024/03/01 08:57:12;;;;;;;13.73;1.83;;;6.20;99.90;;;;;;6289102;28;20068;-86
2024/03/01 09:00:14;;;;;;;14.48;2.03;;;6.30;99.90;;;;;;6251936;28;20096;-85
2024/03/01 09:03:16;;;;;;;16.67;2.58;;;6.40;99.90;;;;;;6274968;28;20048;-89
2024/03/01 09:06:17;;;;;;;12.65;2.40;;;6.50;99.90;;;;;;6259107;28;20065;-84
2024/03/01 09:09:19;;;;;;;13.90;2.75;;;6.90;99.90;;;;;;6274954;28;20060;-84
2024/03/01 09:12:21;;;;;;;12.82;2.20;;;6.70;99.90;;;;;;6243172;28;20091;-85
2024/03/01 09:15:26;;;;;;;13.57;2.22;;;6.80;99.90;;;;;;6251740;28;20453;-82
2024/03/01 09:18:28;;;;;;;10.60;1.67;;;6.80;99.90;;;;;;6225049;28;20256;-86
2024/03/01 09:21:30;;;;;;;7.13;1.20;;;6.80;99.90;;;;;;6239593;28;20424;-82
2024/03/01 09:24:31;;;;;;;9.00;1.63;;;6.70;99.90;;;;;;6237880;28;20054;-81
2024/03/01 09:27:34;;;;;;;6.75;1.10;;;6.60;99.90;;;;;;6270129;28;20144;-82
2024/03/01 09:30:36;;;;;;;7.43;1.42;;;6.30;99.90;;;;;;6229431;28;20057;-86
2024/03/01 09:33:38;;;;;;;5.38;0.90;;;6.20;99.90;;;;;;6238071;28;20053;-82
2024/03/01 09:36:40;;;;;;;6.88;1.20;;;6.10;99.90;;;;;;6271192;28;20060;-81
2024/03/01 09:39:41;;;;;;;6.18;1.13;;;6.60;99.90;;;;;;6272156;28;20060;-83
2024/03/01 09:42:43;;;;;;;7.35;0.98;;;6.00;99.90;;;;;;6228794;28;20052;-87
2024/03/01 09:45:46;;;;;;;8.70;1.20;;;7.30;99.90;;;;;;6271561;28;20056;-86
2024/03/01 09:48:48;;;;;;;5.50;0.80;;;6.00;99.90;;;;;;6264819;28;20053;-88
2024/03/01 09:51:50;;;;;;;5.22;1.10;;;7.10;99.90;;;;;;6292107;28;20049;-87
2024/03/01 09:54:52;;;;;;;10.02;1.25;;;6.00;99.90;;;;;;6291150;28;20068;-90
2024/03/01 09:57:53;;;;;;;11.90;1.52;;;5.90;99.90;;;;;;6247594;28;20065;-91
2024/03/01 10:01:02;;;;;;;9.07;1.30;;;6.00;99.90;;;;;;6286701;28;20057;-84
2024/03/01 10:04:04;;;;;;;6.95;1.20;;;7.10;99.90;;;;;;6237617;28;20061;-81
2024/03/01 10:07:06;;;;;;;8.52;1.58;;;6.10;99.90;;;;;;6270417;28;20055;-81
2024/03/01 10:10:08;;;;;;;5.45;1.48;;;7.80;99.90;;;;;;6246609;28;20412;-82
2024/03/01 10:13:10;;;;;;;12.23;1.98;;;6.30;99.90;;;;;;6246253;28;20129;-82
2024/03/01 10:16:13;;;;;;;9.70;1.20;;;6.40;99.90;;;;;;6246577;28;20119;-85
2024/03/01 10:19:14;;;;;;;6.95;1.10;;;6.60;99.90;;;;;;6246117;28;20057;-89
2024/03/01 10:22:16;;;;;;;12.02;1.60;;;6.60;99.90;;;;;;6287820;28;20085;-85
2024/03/01 10:25:18;;;;;;;6.43;1.33;;;6.60;99.90;;;;;;6261660;28;20514;-79
2024/03/01 10:28:20;;;;;;;6.38;1.20;;;7.10;99.90;;;;;;6243446;28;20265;-85
2024/03/01 10:31:21;;;;;;;7.43;1.10;;;7.60;99.90;;;;;;6272032;28;20059;-86
2024/03/01 10:34:23;;;;;;;7.35;1.13;;;7.90;99.90;;;;;;6262066;28;20405;-89
2024/03/01 10:37:25;;;;;;;4.22;0.70;;;8.60;97.80;;;;;;6284114;28;20471;-88
2024/03/01 10:40:26;;;;;;;6.22;0.90;;;9.60;96.40;;;;;;6246383;28;20049;-87
2024/03/01 10:43:33;;;;;;;5.13;0.90;;;8.70;99.90;;;;;;6259578;28;20045;-87
2024/03/01 10:46:35;;;;;;;3.35;0.63;;;8.60;82.30;;;;;;6287278;28;20053;-88
2024/03/01 10:49:36;;;;;;;3.95;0.82;;;8.10;95.60;;;;;;6237927;28;20080;-88
2024/03/01 10:52:38;;;;;;;4.30;0.80;;;9.10;96.30;;;;;;6270697;28;20404;-88
2024/03/01 10:55:40;;;;;;;5.65;0.90;;;8.80;84.30;;;;;;6246457;28;20049;-87
2024/03/01 10:58:42;;;;;;;2.70;0.70;;;9.60;55.70;;;;;;6259825;28;20053;-86
2024/03/01 11:01:46;;;;;;;5.00;0.77;;;10.10;71.60;;;;;;6269134;28;20064;-85
2024/03/01 11:04:48;;;;;;;6.68;0.90;;;11.70;72.90;;;;;;6245651;28;20060;-87
2024/03/01 11:07:50;;;;;;;2.55;0.80;;;;;;;;;;6285718;28;20249;-87
2024/03/01 11:10:55;;;;;;;3.42;0.90;;;9.60;20.00;;;;;;6245579;28;20060;-89
2024/03/01 11:13:57;;;;;;;2.85;0.70;;;9.70;27.30;;;;;;6240329;28;20139;-88
2024/03/01 11:16:59;;;;;;;4.97;1.08;;;;;;;;;;6270754;28;20049;-86
2024/03/01 11:20:02;;;;;;;3.10;0.70;;;;;;;;;;6273848;28;20061;-89
2024/03/01 11:23:04;;;;;;;7.13;1.10;;;;;;;;;;6260162;28;20099;-85
2024/03/01 11:26:06;;;;;;;7.38;0.80;;;10.10;86.90;;;;;;6267755;28;20102;-85
2024/03/01 11:29:08;;;;;;;1.77;0.52;;;10.40;83.00;;;;;;6268575;28;20053;-81
2024/03/01 11:32:09;;;;;;;1.60;0.50;;;11.00;1.00;;;;;;6245417;28;20060;-84
2024/03/01 11:35:11;;;;;;;1.75;0.50;;;11.00;1.00;;;;;;6247571;28;20053;-91
2024/03/01 11:38:13;;;;;;;6.93;0.80;;;9.40;62.90;;;;;;6247944;28;20060;-91
2024/03/01 11:41:15;;;;;;;5.68;0.63;;;9.40;46.40;;;;;;6255902;28;20119;-90
2024/03/01 11:44:18;;;;;;;1.98;0.80;;;9.60;49.30;;;;;;6231005;28;20080;-90
2024/03/01 11:47:19;;;;;;;3.10;0.88;;;10.50;8.60;;;;;;6264939;28;20527;-92
2024/03/01 11:50:26;;;;;;;2.20;0.70;;;10.80;7.00;;;;;;6278475;28;20052;-88
2024/03/01 11:53:31;;;;;;;1.25;0.43;;;11.00;1.00;;;;;;6223915;28;20050;-91
2024/03/01 11:56:32;;;;;;;2.95;0.70;;;10.80;1.00;;;;;;6272013;28;20041;-91
2024/03/01 11:59:34;;;;;;;1.42;0.50;;;10.80;1.00;;;;;;6246266;28;20060;-91
2024/03/01 12:02:36;;;;;;;1.63;0.50;;;11.20;1.00;;;;;;6277603;28;20578;-90
2024/03/01 12:05:39;;;;;;;1.80;0.60;;;11.60;1.00;;;;;;6248214;28;20061;-90
2024/03/01 12:08:41;;;;;;;0.82;0.40;;;11.20;1.00;;;;;;6253151;28;20532;-87
2024/03/01 12:11:43;;;;;;;0.93;0.40;;;9.60;1.00;;;;;;6260607;28;20053;-88
2024/03/01 12:14:45;;;;;;;2.85;0.70;;;9.50;1.00;;;;;;6274159;28;20059;-87
2024/03/01 12:17:46;;;;;;;1.45;0.70;;;10.80;1.00;;;;;;6259591;28;20175;-86
2024/03/01 12:20:49;;;;;;;1.70;0.60;;;;;;;;;;6282957;28;20057;-85
2024/03/01 12:23:51;;;;;;;1.95;0.50;;;11.40;1.00;;;;;;6243844;28;20060;-86
2024/03/01 12:26:53;;;;;;;3.15;1.05;;;11.40;1.00;;;;;;6268694;28;20080;-86
2024/03/01 12:29:55;;;;;;;1.73;0.60;;;10.90;1.00;;;;;;6234717;28;20344;-85
2024/03/01 12:32:56;;;;;;;2.80;0.70;;;10.80;1.00;;;;;;6268228;28;20132;-87
2024/03/01 12:35:58;;;;;;;2.55;0.57;;;10.80;1.00;;;;;;6261904;28;20049;-85
2024/03/01 12:39:00;;;;;;;2.33;0.70;;;10.10;1.00;;;;;;6274375;28;20530;-82
2024/03/01 12:42:05;;;;;;;2.60;0.60;;;10.70;1.00;;;;;;6249624;28;20049;-84
2024/03/01 12:45:08;;;;;;;5.90;0.75;;;11.40;1.00;;;;;;6263420;28;20053;-84
2024/03/01 12:48:10;;;;;;;2.40;0.77;;;;;;;;;;6249255;28;20054;-85
2024/03/01 12:51:13;;;;;;;3.78;1.10;;;11.40;1.00;;;;;;6287490;28;20056;-84
2024/03/01 12:54:17;;;;;;;5.95;0.98;;;;;;;;;;6248187;28;20063;-83
2024/03/01 12:57:19;;;;;;;3.03;0.60;;;12.10;1.00;;;;;;6287396;28;20056;-83
2024/03/01 13:00:23;;;;;;;3.50;0.85;;;11.80;1.00;;;;;;6249014;28;20102;-85
2024/03/01 13:03:24;;;;;;;6.30;0.77;;;11.60;1.00;;;;;;6272214;28;20060;-83
2024/03/01 13:06:26;;;;;;;7.75;0.98;;;10.90;1.00;;;;;;6252234;28;20053;-87
2024/03/01 13:09:31;;;;;;;3.42;1.10;;;10.30;1.00;;;;;;6294020;28;20048;-82
2024/03/01 13:12:34;;;;;;;4.00;1.00;;;10.30;1.00;;;;;;6247591;28;20050;-81
2024/03/01 13:15:36;;;;;;;6.00;1.30;;;11.50;1.00;;;;;;6255411;28;20501;-83
2024/03/01 13:18:37;;;;;;;5.47;1.38;;;11.50;1.00;;;;;;6223943;28;20054;-84
2024/03/01 13:21:39;;;;;;;5.80;1.15;;;12.90;1.00;;;;;;6246464;28;20046;-82
2024/03/01 13:24:41;;;;;;;6.57;1.48;;;12.90;1.00;;;;;;6223162;28;20061;-84
2024/03/01 13:27:43;;;;;;;3.88;1.00;;;12.60;1.00;;;;;;6244624;28;20084;-83
2024/03/01 13:30:46;;;;;;;7.95;1.42;;;11.50;1.00;;;;;;6217702;28;20549;-91
2024/03/01 13:33:48;;;;;;;4.72;1.45;;;10.80;1.00;;;;;;6213554;28;20509;-89
2024/03/01 13:36:49;;;;;;;6.63;1.50;;;10.70;1.00;;;;;;6244253;28;20053;-82
2024/03/01 13:39:55;;;;;;;9.55;1.50;;;10.30;1.00;;;;;;6198400;28;20103;-81
2024/03/01 13:42:56;;;;;;;7.13;1.60;;;10.20;1.00;;;;;;6247969;28;20180;-80
2024/03/01 13:45:58;;;;;;;8.95;1.45;;;9.90;1.00;;;;;;6222328;28;20058;-80
2024/03/01 13:49:00;;;;;;;8.52;1.60;;;9.60;1.00;;;;;;6221158;28;20050;-86
2024/03/01 13:52:02;;;;;;;7.00;1.30;;;9.10;1.00;;;;;;6197674;28;20367;-87
2024/03/01 13:55:05;;;;;;;5.85;1.30;;;9.80;66.20;;;;;;6213282;28;20054;-84
2024/03/01 13:58:07;;;;;;;6.72;1.17;;;9.90;70.70;;;;;;6215258;28;20713;-83
2024/03/01 14:01:08;;;;;;;6.00;1.00;;;10.40;28.70;;;;;;6246420;28;20179;-83
2024/03/01 14:04:10;;;;;;;5.53;1.10;;;10.60;3.30;;;;;;6221620;28;20096;-86
2024/03/01 14:07:12;;;;;;;5.60;1.08;;;10.90;7.10;;;;;;6246561;28;20060;-85
2024/03/01 14:10:14;;;;;;;4.75;1.13;;;11.20;4.50;;;;;;6222651;28;20272;-85
2024/03/01 14:13:15;;;;;;;5.93;1.20;;;11.30;1.00;;;;;;6229695;28;20614;-86
2024/03/01 14:16:17;;;;;;;4.68;1.05;;;11.60;1.00;;;;;;6208479;28;20054;-86
2024/03/01 14:19:19;;;;;;;6.28;1.35;;;11.90;1.00;;;;;;6260909;28;20057;-81
2024/03/01 14:22:21;;;;;;;7.30;1.15;;;11.40;1.00;;;;;;6246571;28;20192;-81
2024/03/01 14:25:23;;;;;;;5.07;1.13;;;12.10;1.00;;;;;;6269810;28;20059;-81
2024/03/01 14:28:26;;;;;;;4.90;1.20;;;11.90;1.00;;;;;;6235212;28;20052;-84
2024/03/01 14:31:28;;;;;;;6.15;1.30;;;12.00;1.00;;;;;;6265164;28;20062;-82
2024/03/01 14:34:30;;;;;;;6.45;1.40;;;11.80;1.00;;;;;;6287391;28;20063;-88
2024/03/01 14:37:32;;;;;;;5.65;1.10;;;11.90;1.00;;;;;;6262440;28;20060;-90
2024/03/01 14:40:34;;;;;;;6.03;1.23;;;11.90;1.00;;;;;;6273083;28;20415;-86
2024/03/01 14:43:35;;;;;;;6.50;1.27;;;10.90;1.00;;;;;;6271972;28;20180;-90
2024/03/01 14:46:37;;;;;;;7.20;1.92;;;10.90;1.00;;;;;;6285946;28;20059;-84
2024/03/01 14:49:39;;;;;;;6.25;1.50;;;10.80;1.00;;;;;;6270351;28;20052;-86
2024/03/01 14:52:41;;;;;;;7.15;1.38;;;;;;;;;;6220922;28;20058;-84
2024/03/01 14:55:44;;;;;;;10.55;1.63;;;9.50;1.00;;;;;;6239203;28;20085;-81
2024/03/01 14:58:46;;;;;;;11.10;1.95;;;9.60;1.00;;;;;;6235474;28;20057;-81
2024/03/01 15:01:49;;;;;;;7.82;1.60;;;9.30;1.00;;;;;;6268191;28;20327;-79
2024/03/01 15:04:51;;;;;;;10.05;1.40;;;9.40;1.00;;;;;;6243234;28;20054;-84
2024/03/01 15:07:53;;;;;;;7.88;1.70;;;9.40;1.00;;;;;;6250979;28;20058;-82
2024/03/01 15:10:55;;;;;;;13.82;2.05;;;9.20;1.00;;;;;;6267551;28;20068;-83
2024/03/01 15:13:57;;;;;;;7.30;1.70;;;9.30;1.00;;;;;;6241032;28;20527;-83
2024/03/01 15:16:58;;;;;;;10.95;1.52;;;9.30;1.00;;;;;;6257833;28;20058;-79
2024/03/01 15:20:00;;;;;;;11.27;1.83;;;9.30;1.00;;;;;;6257496;28;20068;-80
2024/03/01 15:23:02;;;;;;;10.07;1.58;;;9.30;1.00;;;;;;6268578;28;20063;-82
2024/03/01 15:26:05;;;;;;;10.43;1.50;;;9.50;1.00;;;;;;6259777;28;20061;-81
2024/03/01 15:29:07;;;;;;;11.77;1.50;;;9.40;1.00;;;;;;6242924;28;20049;-82
2024/03/01 15:32:09;;;;;;;8.43;1.63;;;9.40;1.00;;;;;;6269446;28;20056;-82
2024/03/01 15:35:10;;;;;;;7.07;1.67;;;9.40;1.00;;;;;;6246844;28;20624;-85
2024/03/01 15:38:12;;;;;;;10.55;1.77;;;10.20;1.00;;;;;;6267364;28;20063;-83
2024/03/01 15:41:14;;;;;;;13.57;1.70;;;9.40;1.00;;;;;;6270357;28;20512;-83
2024/03/01 15:44:16;;;;;;;7.50;1.60;;;9.30;1.00;;;;;;6242905;28;20097;-90
2024/03/01 15:47:18;;;;;;;10.70;1.63;;;9.10;1.00;;;;;;6259660;28;20057;-79
2024/03/01 15:50:19;;;;;;;9.57;1.67;;;9.40;1.00;;;;;;6267924;28;20049;-80
2024/03/01 15:53:21;;;;;;;9.23;1.52;;;8.80;1.00;;;;;;6244209;28;20065;-79
2024/03/01 15:56:24;;;;;;;8.65;1.60;;;8.90;1.00;;;;;;6268278;28;20053;-79
2024/03/01 15:59:26;;;;;;;7.95;1.27;;;9.30;1.00;;;;;;6253775;28;20064;-79
2024/03/01 16:02:30;;;;;;;7.00;1.20;;;8.90;1.00;;;;;;6244396;28;20049;-79